Time;durP1;ratioP1;P1;durP2;ratioP2;P2;SDS_P1;SDS_P2;PMS_P1;PMS_P2;Temp;Humidity;BMP_temperature;BMP_pressure;BME280_temperature;BME280_humidity;BME280_pressure;Samples;Min_cycle;Max_cycle;Signal;HPM_P1;HPM_P2
2021/09/12 00:00:07;;;;;;;23.00;18.48;;;18.00;98.50;;;;;;5072936;28;20028;-82
2021/09/12 00:02:32;;;;;;;20.38;15.65;;;18.00;98.50;;;;;;5080489;28;20103;-82
2021/09/12 00:04:58;;;;;;;24.90;17.55;;;18.00;98.50;;;;;;5099065;28;20027;-82
2021/09/12 00:07:23;;;;;;;21.60;18.80;;;18.00;98.60;;;;;;5070753;28;20436;-83
2021/09/12 00:09:49;;;;;;;31.33;19.25;;;18.00;98.50;;;;;;5105039;28;20024;-82
2021/09/12 00:12:15;;;;;;;26.77;19.42;;;17.90;98.70;;;;;;5071803;28;20039;-82
2021/09/12 00:14:42;;;;;;;24.33;17.45;;;18.00;98.50;;;;;;5071409;28;20024;-82
2021/09/12 00:17:08;;;;;;;20.63;16.90;;;18.00;98.80;;;;;;5079343;28;20422;-82
2021/09/12 00:19:34;;;;;;;20.52;14.75;;;17.90;98.70;;;;;;5086348;28;20036;-81
2021/09/12 00:21:59;;;;;;;18.55;14.30;;;17.90;98.70;;;;;;5072720;28;20031;-83
2021/09/12 00:24:25;;;;;;;20.55;14.30;;;17.90;98.60;;;;;;5082544;28;20101;-82
2021/09/12 00:26:50;;;;;;;19.73;15.35;;;17.90;98.60;;;;;;5085065;28;20039;-81
2021/09/12 00:29:17;;;;;;;17.65;14.65;;;17.90;98.50;;;;;;5069452;27;20032;-82
2021/09/12 00:31:42;;;;;;;19.30;15.40;;;17.90;98.80;;;;;;5066300;28;20039;-81
2021/09/12 00:34:08;;;;;;;23.70;16.88;;;17.90;98.60;;;;;;5073671;28;20028;-81
2021/09/12 00:36:33;;;;;;;19.50;14.15;;;17.90;98.70;;;;;;5080475;28;20293;-83
2021/09/12 00:38:59;;;;;;;26.65;17.17;;;17.80;98.30;;;;;;5084531;28;20031;-82
2021/09/12 00:41:25;;;;;;;18.27;13.70;;;17.80;98.60;;;;;;5084760;28;20031;-81
2021/09/12 00:43:50;;;;;;;18.98;14.25;;;17.80;98.60;;;;;;5087757;28;20043;-82
2021/09/12 00:46:16;;;;;;;19.00;13.70;;;17.80;98.50;;;;;;5083728;28;20024;-82
2021/09/12 00:48:42;;;;;;;16.95;12.60;;;17.70;98.50;;;;;;5089683;28;20095;-82
2021/09/12 00:51:07;;;;;;;14.55;11.45;;;17.80;98.50;;;;;;5072210;28;20038;-82
2021/09/12 00:53:35;;;;;;;17.13;12.93;;;17.80;98.40;;;;;;5085420;28;20031;-83
2021/09/12 00:56:02;;;;;;;14.98;12.85;;;17.80;98.70;;;;;;5073135;28;20798;-81
2021/09/12 00:58:28;;;;;;;17.58;12.90;;;17.80;98.70;;;;;;5069983;28;20531;-82
2021/09/12 01:00:53;;;;;;;17.40;12.40;;;17.80;98.60;;;;;;5086563;28;22190;-82
2021/09/12 01:03:19;;;;;;;22.98;17.10;;;17.90;98.60;;;;;;5091421;28;20050;-82
2021/09/12 01:05:45;;;;;;;24.52;16.00;;;17.90;98.40;;;;;;5073643;28;20122;-82
2021/09/12 01:08:10;;;;;;;16.45;12.75;;;17.90;99.00;;;;;;5090114;28;20100;-82
2021/09/12 01:10:37;;;;;;;16.67;12.40;;;17.90;98.90;;;;;;5085138;28;20407;-82
2021/09/12 01:13:04;;;;;;;16.52;11.57;;;17.90;98.90;;;;;;5077432;28;20020;-82
2021/09/12 01:15:29;;;;;;;19.75;12.93;;;18.00;99.00;;;;;;5085092;28;20043;-82
2021/09/12 01:17:55;;;;;;;15.38;11.63;;;18.00;98.70;;;;;;5104899;27;20027;-82
2021/09/12 01:20:20;;;;;;;16.77;12.30;;;18.00;98.90;;;;;;5082425;28;20027;-82
2021/09/12 01:22:46;;;;;;;22.92;17.48;;;18.00;98.70;;;;;;5089216;28;20111;-81
2021/09/12 01:25:12;;;;;;;24.08;13.80;;;17.90;98.70;;;;;;5076755;28;20067;-82
2021/09/12 01:27:37;;;;;;;21.00;13.55;;;17.90;98.80;;;;;;5071128;28;20055;-82
2021/09/12 01:30:03;;;;;;;16.65;12.15;;;17.90;99.20;;;;;;5089324;28;20035;-81
2021/09/12 01:32:29;;;;;;;16.65;12.20;;;17.90;98.80;;;;;;5081719;28;20036;-82
2021/09/12 01:34:55;;;;;;;15.82;11.80;;;17.90;98.80;;;;;;5087982;27;20036;-83
2021/09/12 01:37:20;;;;;;;17.17;11.65;;;17.80;98.80;;;;;;5070969;28;20028;-82
2021/09/12 01:39:46;;;;;;;19.17;13.93;;;17.80;99.10;;;;;;5087531;28;20092;-81
2021/09/12 01:42:11;;;;;;;20.90;14.80;;;17.80;99.20;;;;;;5074147;28;20031;-82
2021/09/12 01:44:37;;;;;;;22.38;15.45;;;17.80;99.10;;;;;;5084949;28;20032;-82
2021/09/12 01:47:02;;;;;;;20.65;13.23;;;17.80;99.00;;;;;;5086584;28;20024;-82
2021/09/12 01:49:28;;;;;;;15.88;12.30;;;17.80;98.80;;;;;;5089112;28;20039;-82
2021/09/12 01:51:54;;;;;;;21.83;15.60;;;17.80;98.90;;;;;;5088496;28;20458;-82
2021/09/12 01:54:19;;;;;;;22.05;15.20;;;17.70;99.10;;;;;;5076190;28;20038;-81
2021/09/12 01:56:45;;;;;;;20.08;12.20;;;17.80;99.10;;;;;;5086970;27;20036;-82
2021/09/12 01:59:10;;;;;;;18.25;12.52;;;17.80;99.30;;;;;;5068430;28;20487;-81
2021/09/12 02:01:36;;;;;;;20.10;12.40;;;17.80;99.20;;;;;;5080888;28;20036;-82
2021/09/12 02:04:02;;;;;;;16.52;11.50;;;17.80;99.00;;;;;;5074522;28;20031;-81
2021/09/12 02:06:27;;;;;;;17.25;11.68;;;17.70;99.00;;;;;;5081919;28;20032;-82
2021/09/12 02:08:53;;;;;;;18.95;13.88;;;17.70;98.90;;;;;;5090262;28;20028;-81
2021/09/12 02:11:19;;;;;;;23.00;14.88;;;17.50;99.10;;;;;;5072349;28;20454;-81
2021/09/12 02:13:44;;;;;;;22.50;14.27;;;17.60;99.40;;;;;;5074047;28;20065;-81
2021/09/12 02:16:10;;;;;;;25.00;15.77;;;17.50;99.10;;;;;;5090838;28;20065;-81
2021/09/12 02:18:36;;;;;;;19.13;13.20;;;17.40;99.50;;;;;;5074332;28;20024;-81
2021/09/12 02:21:01;;;;;;;19.10;13.23;;;17.30;99.00;;;;;;5076000;28;20475;-81
2021/09/12 02:23:27;;;;;;;24.23;17.65;;;17.30;99.20;;;;;;5090277;28;20062;-86
2021/09/12 02:25:53;;;;;;;16.55;12.25;;;17.30;99.40;;;;;;5084496;28;20051;-86
2021/09/12 02:28:18;;;;;;;23.42;15.18;;;17.30;99.50;;;;;;5070686;27;20032;-86
2021/09/12 02:30:44;;;;;;;20.35;12.23;;;17.30;99.40;;;;;;5092557;28;20039;-86
2021/09/12 02:33:10;;;;;;;30.77;18.88;;;17.30;99.30;;;;;;5092317;28;20387;-85
2021/09/12 02:35:35;;;;;;;19.27;13.55;;;17.20;99.90;;;;;;5083721;28;20024;-85
2021/09/12 02:38:01;;;;;;;24.42;13.70;;;17.30;99.70;;;;;;5071648;28;20032;-86
2021/09/12 02:40:26;;;;;;;28.48;16.77;;;17.30;99.60;;;;;;5079904;28;20475;-86
2021/09/12 02:42:52;;;;;;;22.40;13.13;;;17.30;99.60;;;;;;5080775;28;20479;-86
2021/09/12 02:45:18;;;;;;;17.63;13.13;;;17.40;99.50;;;;;;5082492;28;20550;-86
2021/09/12 02:47:43;;;;;;;17.45;10.88;;;17.30;99.40;;;;;;5088504;28;20436;-86
2021/09/12 02:50:09;;;;;;;19.77;13.75;;;17.40;99.30;;;;;;5083888;28;20023;-87
2021/09/12 02:52:35;;;;;;;15.65;11.38;;;17.40;99.50;;;;;;5088454;28;20032;-86
2021/09/12 02:55:05;;;;;;;20.55;11.02;;;17.40;99.20;;;;;;5085372;27;20036;-86
2021/09/12 02:57:30;;;;;;;19.42;12.07;;;17.50;99.20;;;;;;5090508;28;20043;-86
2021/09/12 02:59:57;;;;;;;17.90;11.05;;;17.40;99.40;;;;;;5102277;28;20460;-86
2021/09/12 03:02:22;;;;;;;18.40;11.98;;;17.30;99.50;;;;;;5086003;28;20119;-86
2021/09/12 03:04:48;;;;;;;16.50;11.25;;;17.20;99.20;;;;;;5082093;28;20061;-86
2021/09/12 03:07:13;;;;;;;18.73;12.15;;;17.30;99.50;;;;;;5093678;27;20410;-86
2021/09/12 03:09:39;;;;;;;25.17;14.10;;;17.20;99.80;;;;;;5090287;28;20434;-85
2021/09/12 03:12:05;;;;;;;16.38;11.02;;;17.10;99.70;;;;;;5076688;28;20441;-86
2021/09/12 03:14:30;;;;;;;16.58;10.85;;;17.10;99.70;;;;;;5090097;28;20126;-86
2021/09/12 03:16:56;;;;;;;20.95;12.60;;;17.10;99.60;;;;;;5087738;28;20111;-86
2021/09/12 03:19:22;;;;;;;19.55;13.02;;;17.10;99.60;;;;;;5083022;28;20040;-85
2021/09/12 03:21:47;;;;;;;20.60;10.43;;;17.10;99.80;;;;;;5070736;28;20107;-85
2021/09/12 03:24:13;;;;;;;18.08;12.00;;;17.20;99.50;;;;;;5104186;28;20547;-86
2021/09/12 03:26:38;;;;;;;18.23;11.77;;;17.10;99.30;;;;;;5087262;28;20024;-86
2021/09/12 03:29:04;;;;;;;24.27;13.95;;;17.10;99.60;;;;;;5074094;28;20459;-86
2021/09/12 03:31:29;;;;;;;16.38;11.68;;;17.00;99.50;;;;;;5080924;28;20444;-86
2021/09/12 03:33:55;;;;;;;28.73;17.55;;;17.00;99.70;;;;;;5086423;28;20043;-86
2021/09/12 03:36:20;;;;;;;19.15;12.60;;;16.90;99.30;;;;;;5086699;28;20031;-86
2021/09/12 03:38:46;;;;;;;19.70;12.98;;;17.00;99.90;;;;;;5097821;28;20082;-85
2021/09/12 03:41:11;;;;;;;21.25;12.25;;;16.90;99.90;;;;;;5086851;28;20116;-86
2021/09/12 03:43:37;;;;;;;29.50;14.90;;;16.90;99.90;;;;;;5099542;28;20023;-85
2021/09/12 03:46:02;;;;;;;15.30;11.20;;;17.00;99.90;;;;;;5089158;28;20032;-85
2021/09/12 03:48:28;;;;;;;18.83;13.60;;;16.80;99.90;;;;;;5083021;28;20050;-86
2021/09/12 03:50:54;;;;;;;19.70;12.52;;;16.80;99.90;;;;;;5073385;28;20028;-85
2021/09/12 03:53:21;;;;;;;21.20;12.50;;;16.80;99.90;;;;;;5085332;28;20024;-86
2021/09/12 03:55:47;;;;;;;22.70;13.75;;;16.90;99.90;;;;;;5084048;27;20028;-86
2021/09/12 03:58:12;;;;;;;22.02;13.80;;;16.80;99.90;;;;;;5087747;28;20050;-85
2021/09/12 04:00:39;;;;;;;16.10;11.63;;;16.90;99.90;;;;;;5068010;27;20028;-85
2021/09/12 04:03:04;;;;;;;21.45;11.82;;;17.00;99.90;;;;;;5072889;28;20148;-87
2021/09/12 04:05:30;;;;;;;20.85;12.25;;;17.00;99.90;;;;;;5072755;28;20055;-86
2021/09/12 04:08:02;;;;;;;13.45;10.25;;;16.90;99.80;;;;;;5084872;28;20109;-88
2021/09/12 04:10:27;;;;;;;20.83;13.57;;;16.80;99.90;;;;;;5074414;28;20036;-89
2021/09/12 04:12:53;;;;;;;17.63;10.88;;;16.80;99.80;;;;;;5086847;28;20027;-89
2021/09/12 04:15:18;;;;;;;19.80;12.02;;;16.80;99.90;;;;;;5089029;28;20089;-88
2021/09/12 04:17:44;;;;;;;22.67;12.48;;;16.80;99.90;;;;;;5090916;28;20028;-87
2021/09/12 04:20:10;;;;;;;17.80;11.88;;;16.70;99.90;;;;;;5071726;28;20454;-87
2021/09/12 04:22:36;;;;;;;21.60;13.10;;;16.70;99.90;;;;;;5087637;28;20021;-84
2021/09/12 04:25:02;;;;;;;20.27;13.82;;;16.70;99.70;;;;;;5071383;28;20134;-87
2021/09/12 04:27:27;;;;;;;16.77;11.43;;;16.60;99.80;;;;;;5075038;28;20027;-86
2021/09/12 04:30:00;;;;;;;28.17;16.90;;;16.60;99.90;;;;;;5098141;27;20045;-88
2021/09/12 04:32:26;;;;;;;16.92;10.30;;;16.60;99.90;;;;;;5082411;28;20047;-87
2021/09/12 04:34:51;;;;;;;14.75;10.70;;;16.40;99.70;;;;;;5087252;28;20039;-86
2021/09/12 04:37:17;;;;;;;21.80;13.23;;;16.30;99.70;;;;;;5086468;28;20053;-84
2021/09/12 04:39:42;;;;;;;14.68;9.57;;;16.50;99.90;;;;;;5088323;28;20047;-86
2021/09/12 04:42:08;;;;;;;17.35;9.63;;;16.30;99.90;;;;;;5102690;27;20035;-87
2021/09/12 04:44:34;;;;;;;17.52;10.90;;;16.30;99.80;;;;;;5105472;28;20085;-86
2021/09/12 04:46:59;;;;;;;17.35;11.68;;;16.30;99.90;;;;;;5075387;28;20024;-87
2021/09/12 04:49:25;;;;;;;14.02;9.80;;;16.30;99.90;;;;;;5088101;28;20042;-87
2021/09/12 04:51:50;;;;;;;15.65;11.95;;;16.30;99.80;;;;;;5071838;28;20028;-86
2021/09/12 04:54:16;;;;;;;19.48;13.30;;;16.30;99.90;;;;;;5083740;28;20112;-86
2021/09/12 04:56:41;;;;;;;12.32;8.50;;;16.20;99.90;;;;;;5068631;28;20474;-88
2021/09/12 04:59:17;;;;;;;20.40;11.63;;;16.20;99.70;;;;;;5077817;28;20059;-87
2021/09/12 05:01:43;;;;;;;24.25;13.98;;;16.20;99.90;;;;;;5109518;28;20507;-87
2021/09/12 05:04:08;;;;;;;17.95;11.57;;;16.40;99.80;;;;;;5073192;27;20019;-87
2021/09/12 05:06:34;;;;;;;13.05;9.07;;;16.20;99.90;;;;;;5071324;27;20044;-86
2021/09/12 05:09:00;;;;;;;17.65;10.15;;;16.10;99.70;;;;;;5083398;28;20057;-87
2021/09/12 05:11:25;;;;;;;12.18;8.43;;;15.90;99.90;;;;;;5088102;28;20123;-83
2021/09/12 05:13:51;;;;;;;13.65;7.78;;;16.10;99.90;;;;;;5074489;28;20554;-83
2021/09/12 05:16:16;;;;;;;13.57;8.43;;;16.00;99.90;;;;;;5074456;28;20024;-83
2021/09/12 05:18:42;;;;;;;16.30;10.70;;;16.00;99.80;;;;;;5075096;28;20032;-82
2021/09/12 05:21:07;;;;;;;16.95;8.95;;;15.90;99.90;;;;;;5088752;28;20103;-82
2021/09/12 05:23:41;;;;;;;13.60;10.13;;;15.90;99.70;;;;;;5089715;28;20113;-83
2021/09/12 05:26:08;;;;;;;18.70;11.13;;;15.80;99.90;;;;;;5075088;28;20035;-82
2021/09/12 05:28:34;;;;;;;13.93;8.40;;;15.90;99.90;;;;;;5084348;28;20834;-82
2021/09/12 05:31:01;;;;;;;16.23;8.68;;;15.80;99.80;;;;;;5083787;28;20032;-83
2021/09/12 05:33:29;;;;;;;13.38;8.43;;;15.80;99.90;;;;;;5070180;28;20028;-84
2021/09/12 05:35:55;;;;;;;9.15;6.60;;;15.60;99.90;;;;;;5091554;27;20506;-82
2021/09/12 05:38:21;;;;;;;11.18;8.05;;;15.70;99.80;;;;;;5077627;28;20025;-82
2021/09/12 05:40:46;;;;;;;12.90;7.25;;;15.80;99.90;;;;;;5075213;28;20085;-82
2021/09/12 05:43:12;;;;;;;13.52;8.23;;;15.70;99.90;;;;;;5088607;28;20030;-82
2021/09/12 05:45:37;;;;;;;11.98;7.28;;;15.80;99.90;;;;;;5070242;28;20111;-82
2021/09/12 05:48:03;;;;;;;12.50;8.43;;;15.60;99.70;;;;;;5075983;28;20027;-83
2021/09/12 05:50:29;;;;;;;12.18;7.90;;;15.70;99.90;;;;;;5083865;28;20470;-82
2021/09/12 05:52:54;;;;;;;13.25;8.15;;;15.70;99.90;;;;;;5084314;28;20027;-82
2021/09/12 05:55:20;;;;;;;11.18;6.18;;;15.90;99.90;;;;;;5088759;28;20391;-82
2021/09/12 05:57:45;;;;;;;10.48;6.50;;;15.80;99.80;;;;;;5072034;28;20426;-82
2021/09/12 06:00:11;;;;;;;12.13;8.02;;;15.80;99.70;;;;;;5073672;28;20532;-83
2021/09/12 06:02:38;;;;;;;10.65;6.53;;;15.90;99.60;;;;;;5067680;28;20032;-82
2021/09/12 06:05:04;;;;;;;6.68;5.13;;;15.90;99.70;;;;;;5075228;28;20019;-82
2021/09/12 06:07:30;;;;;;;9.40;6.15;;;15.90;99.60;;;;;;5073613;28;20429;-82
2021/09/12 06:09:56;;;;;;;9.00;5.40;;;15.90;99.50;;;;;;5073328;28;20032;-82
2021/09/12 06:12:21;;;;;;;8.38;5.93;;;16.00;99.50;;;;;;5087341;28;20068;-82
2021/09/12 06:14:49;;;;;;;11.65;6.55;;;15.90;99.60;;;;;;5085840;28;20035;-82
2021/09/12 06:17:15;;;;;;;11.38;6.60;;;15.90;99.60;;;;;;5085519;28;20479;-82
2021/09/12 06:19:41;;;;;;;7.90;5.20;;;15.90;99.70;;;;;;5071439;28;20058;-82
2021/09/12 06:22:06;;;;;;;10.10;6.38;;;16.10;99.50;;;;;;5069955;28;20128;-82
2021/09/12 06:24:32;;;;;;;10.43;6.32;;;16.10;99.50;;;;;;5084828;28;20039;-82
2021/09/12 06:26:58;;;;;;;12.05;6.07;;;16.20;99.50;;;;;;5088535;28;20036;-83
2021/09/12 06:29:25;;;;;;;11.63;6.80;;;16.20;99.50;;;;;;5068892;28;20506;-81
2021/09/12 06:31:50;;;;;;;11.45;5.20;;;16.20;99.40;;;;;;5084833;28;20166;-82
2021/09/12 06:34:16;;;;;;;10.77;5.32;;;16.20;99.50;;;;;;5088554;28;20775;-80
2021/09/12 06:36:41;;;;;;;6.88;5.25;;;16.20;99.30;;;;;;5072934;28;20523;-81
2021/09/12 06:39:07;;;;;;;9.60;6.05;;;16.30;99.20;;;;;;5092844;28;20490;-81
2021/09/12 06:41:32;;;;;;;9.02;4.97;;;16.20;99.30;;;;;;5101069;28;20400;-81
2021/09/12 06:43:58;;;;;;;11.30;5.35;;;16.40;99.30;;;;;;5064576;28;20076;-81
2021/09/12 06:46:23;;;;;;;9.95;5.88;;;16.30;99.20;;;;;;5091987;28;20496;-81
2021/09/12 06:48:49;;;;;;;13.77;5.85;;;16.40;99.10;;;;;;5067377;28;20602;-81
2021/09/12 06:51:14;;;;;;;7.47;5.15;;;16.50;98.90;;;;;;5070941;28;20118;-81
2021/09/12 06:53:40;;;;;;;13.05;5.70;;;16.40;99.30;;;;;;5067837;28;20038;-81
2021/09/12 06:56:06;;;;;;;13.65;5.38;;;16.50;98.90;;;;;;5072466;28;20028;-81
2021/09/12 06:58:32;;;;;;;12.90;5.45;;;16.50;99.00;;;;;;5074309;28;20031;-81
2021/09/12 07:00:58;;;;;;;9.85;5.32;;;16.60;98.80;;;;;;5084520;28;20047;-81
2021/09/12 07:03:24;;;;;;;12.15;7.22;;;16.60;98.90;;;;;;5067787;28;20045;-81
2021/09/12 07:05:49;;;;;;;11.73;6.80;;;16.60;98.80;;;;;;5107613;28;20483;-81
2021/09/12 07:08:15;;;;;;;10.70;5.88;;;16.60;98.80;;;;;;5086032;28;20028;-82
2021/09/12 07:10:49;;;;;;;13.18;5.93;;;16.60;98.80;;;;;;5065565;28;20096;-82
2021/09/12 07:13:14;;;;;;;10.75;5.07;;;16.70;98.70;;;;;;5089374;28;20038;-81
2021/09/12 07:15:40;;;;;;;7.13;4.88;;;16.70;98.80;;;;;;5085837;28;20107;-81
2021/09/12 07:18:05;;;;;;;11.38;4.97;;;16.80;98.80;;;;;;5070501;28;20023;-81
2021/09/12 07:20:32;;;;;;;9.68;4.60;;;16.80;98.80;;;;;;5103114;28;20035;-80
2021/09/12 07:22:57;;;;;;;7.45;4.55;;;16.90;98.60;;;;;;5072113;28;20034;-81
2021/09/12 07:25:23;;;;;;;10.73;4.70;;;16.90;98.60;;;;;;5083602;28;20043;-81
2021/09/12 07:27:48;;;;;;;9.85;5.28;;;16.90;98.50;;;;;;5090566;28;20024;-81
2021/09/12 07:30:14;;;;;;;15.68;6.40;;;17.10;98.30;;;;;;5063894;28;20066;-81
2021/09/12 07:32:40;;;;;;;9.85;5.03;;;17.20;98.50;;;;;;5073406;28;20043;-82
2021/09/12 07:35:06;;;;;;;10.18;5.43;;;17.20;98.50;;;;;;5090218;28;20038;-81
2021/09/12 07:37:34;;;;;;;12.30;5.97;;;17.30;98.40;;;;;;5080358;28;20530;-81
2021/09/12 07:39:59;;;;;;;16.65;6.63;;;17.40;98.70;;;;;;5084598;28;20076;-81
2021/09/12 07:42:25;;;;;;;11.77;5.53;;;17.50;98.40;;;;;;5071240;28;20031;-81
2021/09/12 07:44:51;;;;;;;8.95;4.82;;;17.60;98.50;;;;;;5102493;28;20031;-81
2021/09/12 07:47:22;;;;;;;6.45;4.97;;;17.80;98.20;;;;;;5073299;28;20027;-81
2021/09/12 07:49:48;;;;;;;9.57;5.35;;;17.90;97.90;;;;;;5077745;28;20058;-81
2021/09/12 07:52:13;;;;;;;12.05;5.30;;;18.00;98.00;;;;;;5087053;28;20073;-81
2021/09/12 07:54:39;;;;;;;9.20;4.95;;;18.20;98.20;;;;;;5087329;28;20039;-82
2021/09/12 07:57:05;;;;;;;13.18;5.78;;;18.30;97.60;;;;;;5069053;28;20035;-81
2021/09/12 07:59:30;;;;;;;8.68;5.50;;;18.40;97.80;;;;;;5086310;28;20027;-82
2021/09/12 08:02:02;;;;;;;9.52;5.00;;;18.60;98.50;;;;;;5086352;28;20080;-82
2021/09/12 08:04:27;;;;;;;10.25;4.88;;;18.70;96.80;;;;;;5087003;28;20036;-82
2021/09/12 08:06:53;;;;;;;11.93;5.05;;;18.60;96.00;;;;;;5074639;28;20027;-83
2021/09/12 08:09:18;;;;;;;12.75;4.72;;;18.80;96.00;;;;;;5076616;28;21036;-83
2021/09/12 08:11:44;;;;;;;15.35;4.40;;;19.00;96.00;;;;;;5105509;28;20032;-82
2021/09/12 08:14:10;;;;;;;7.03;4.32;;;19.20;95.90;;;;;;5089767;27;20080;-83
2021/09/12 08:16:35;;;;;;;8.15;5.05;;;19.30;95.60;;;;;;5068121;28;20044;-84
2021/09/12 08:19:01;;;;;;;13.55;4.57;;;19.40;95.40;;;;;;5067959;28;20035;-83
2021/09/12 08:21:27;;;;;;;7.38;3.75;;;19.40;95.40;;;;;;5070166;28;20120;-82
2021/09/12 08:23:52;;;;;;;10.57;4.13;;;19.50;95.70;;;;;;5073349;28;20125;-83
2021/09/12 08:26:18;;;;;;;8.02;3.72;;;19.60;96.00;;;;;;5087639;27;20081;-83
2021/09/12 08:28:44;;;;;;;6.50;4.10;;;19.70;95.90;;;;;;5082951;27;20112;-84
2021/09/12 08:31:09;;;;;;;10.13;3.80;;;19.90;95.80;;;;;;5090187;28;20083;-83
2021/09/12 08:33:35;;;;;;;12.32;3.88;;;20.10;95.60;;;;;;5076021;28;20030;-83
2021/09/12 08:36:00;;;;;;;4.95;2.85;;;20.20;95.00;;;;;;5088767;28;20116;-82
2021/09/12 08:38:26;;;;;;;8.48;3.30;;;20.30;95.20;;;;;;5083763;28;20386;-83
2021/09/12 08:40:54;;;;;;;7.43;3.08;;;20.30;95.80;;;;;;5078066;28;20036;-83
2021/09/12 08:43:19;;;;;;;10.27;2.90;;;20.50;95.30;;;;;;5076603;28;20036;-83
2021/09/12 08:45:49;;;;;;;10.57;3.08;;;20.50;94.70;;;;;;5069286;28;20028;-82
2021/09/12 08:48:14;;;;;;;6.53;3.25;;;20.60;93.30;;;;;;5087488;27;22801;-83
2021/09/12 08:50:40;;;;;;;9.23;3.20;;;20.70;95.10;;;;;;5077389;28;20111;-82
2021/09/12 08:53:05;;;;;;;5.03;2.15;;;21.00;94.30;;;;;;5085223;28;20021;-83
2021/09/12 08:55:31;;;;;;;4.80;2.58;;;21.10;93.70;;;;;;5074007;28;20441;-84
2021/09/12 08:57:58;;;;;;;6.38;2.35;;;21.20;93.30;;;;;;5085528;28;20016;-83
2021/09/12 09:00:27;;;;;;;6.82;2.38;;;21.10;93.50;;;;;;5083162;28;20047;-83
2021/09/12 09:03:03;;;;;;;6.32;2.00;;;21.40;92.50;;;;;;5070634;28;20029;-83
2021/09/12 09:05:33;;;;;;;4.75;2.10;;;21.30;93.30;;;;;;5100732;28;20039;-83
2021/09/12 09:08:11;;;;;;;3.65;2.47;;;21.40;92.70;;;;;;5107892;27;20028;-83
2021/09/12 09:10:38;;;;;;;4.38;2.47;;;21.60;92.40;;;;;;5079243;28;20560;-83
2021/09/12 09:13:03;;;;;;;6.38;3.67;;;21.70;92.30;;;;;;5099172;28;20412;-84
2021/09/12 09:15:29;;;;;;;5.95;2.30;;;21.70;91.90;;;;;;5071374;28;20031;-85
2021/09/12 09:17:56;;;;;;;4.65;2.22;;;21.70;92.40;;;;;;5093844;28;20047;-85
2021/09/12 09:20:48;;;;;;;7.72;2.40;;;21.90;92.10;;;;;;5079962;28;20115;-84
2021/09/12 09:23:17;;;;;;;4.95;2.40;;;21.90;91.70;;;;;;5085198;28;20479;-84
2021/09/12 09:25:42;;;;;;;4.35;2.28;;;21.90;92.00;;;;;;5093127;28;20127;-84
2021/09/12 09:28:09;;;;;;;7.15;2.55;;;22.30;90.20;;;;;;5093274;27;20115;-85
2021/09/12 09:30:49;;;;;;;2.53;2.13;;;22.50;89.00;;;;;;5061368;28;20531;-84
2021/09/12 09:33:22;;;;;;;4.88;3.05;;;22.30;91.40;;;;;;5078272;28;20122;-85
2021/09/12 09:35:58;;;;;;;4.57;2.22;;;22.60;91.70;;;;;;5073895;28;20051;-84
2021/09/12 09:38:24;;;;;;;;;;;22.50;91.10;;;;;;5109086;27;20032;-84
2021/09/12 09:41:00;;;;;;;5.88;2.30;;;22.60;91.50;;;;;;5096951;28;19908;-84
2021/09/12 09:43:37;;;;;;;8.27;2.78;;;22.60;91.50;;;;;;5087734;28;20019;-84
2021/09/12 09:46:04;;;;;;;8.10;2.90;;;22.60;91.30;;;;;;5101793;27;20032;-83
2021/09/12 09:48:34;;;;;;;4.90;1.90;;;22.70;90.20;;;;;;5071750;28;20020;-83
2021/09/12 09:51:03;;;;;;;4.50;2.22;;;23.00;90.00;;;;;;5070553;28;20028;-84
2021/09/12 09:53:33;;;;;;;4.38;1.70;;;23.20;88.90;;;;;;5080221;28;20510;-83
2021/09/12 09:55:59;;;;;;;5.85;2.15;;;23.00;90.40;;;;;;5087581;28;20023;-84
2021/09/12 09:58:24;;;;;;;4.70;2.03;;;22.90;90.00;;;;;;5073489;28;20022;-84
2021/09/12 10:00:50;;;;;;;5.03;1.92;;;23.20;90.00;;;;;;5070859;28;20092;-84
2021/09/12 10:03:17;;;;;;;4.90;1.77;;;23.40;88.70;;;;;;5077033;28;20086;-83
2021/09/12 10:05:43;;;;;;;6.22;1.90;;;23.40;88.40;;;;;;5081137;28;20020;-84
2021/09/12 10:08:09;;;;;;;2.50;1.70;;;23.40;88.90;;;;;;5086603;28;20471;-83
2021/09/12 10:10:34;;;;;;;4.40;2.47;;;23.30;89.60;;;;;;5092302;28;20030;-83
2021/09/12 10:13:19;;;;;;;5.20;2.25;;;23.60;87.40;;;;;;5076912;28;20518;-85
2021/09/12 10:15:48;;;;;;;1.88;1.70;;;23.50;88.90;;;;;;5096814;27;20043;-83
2021/09/12 10:18:20;;;;;;;6.75;2.25;;;23.70;85.70;;;;;;5085309;28;20115;-83
2021/09/12 10:20:46;;;;;;;2.38;1.65;;;23.90;86.40;;;;;;5090806;28;20514;-83
2021/09/12 10:23:15;;;;;;;6.07;1.67;;;24.20;86.00;;;;;;5071509;28;20047;-83
2021/09/12 10:25:54;;;;;;;3.50;1.30;;;24.10;89.10;;;;;;5083503;28;20471;-84
2021/09/12 10:28:36;;;;;;;4.45;1.80;;;24.30;85.10;;;;;;5091538;28;20854;-83
2021/09/12 10:31:32;;;;;;;4.10;2.10;;;24.30;85.90;;;;;;5088340;28;20036;-83
2021/09/12 10:34:14;;;;;;;6.75;1.90;;;24.70;85.20;;;;;;5071864;28;20028;-84
2021/09/12 10:36:41;;;;;;;10.25;2.85;;;24.60;89.10;;;;;;5060622;28;20050;-84
2021/09/12 10:39:31;;;;;;;6.25;2.38;;;24.50;87.40;;;;;;5065787;27;20429;-83
2021/09/12 10:42:12;;;;;;;2.85;2.08;;;24.90;82.00;;;;;;5078827;27;20027;-82
2021/09/12 10:44:41;;;;;;;2.83;1.17;;;25.00;82.60;;;;;;5093859;27;20027;-83
2021/09/12 10:47:10;;;;;;;5.40;1.80;;;24.70;81.40;;;;;;5087295;28;20057;-83
2021/09/12 10:49:36;;;;;;;3.80;2.13;;;24.70;80.10;;;;;;5084477;28;20036;-84
2021/09/12 10:52:02;;;;;;;6.38;1.92;;;24.70;81.70;;;;;;5061976;28;20115;-83
2021/09/12 10:54:28;;;;;;;4.95;1.67;;;24.80;80.10;;;;;;5070720;28;20042;-84
2021/09/12 10:57:05;;;;;;;2.60;1.60;;;24.90;81.10;;;;;;5076853;28;20122;-83
2021/09/12 10:59:30;;;;;;;3.60;1.80;;;25.00;83.00;;;;;;5089457;28;20024;-84
2021/09/12 11:01:56;;;;;;;3.60;1.63;;;25.10;82.40;;;;;;5090806;28;20164;-83
2021/09/12 11:04:32;;;;;;;5.47;1.88;;;24.80;79.70;;;;;;5079824;28;20080;-83
2021/09/12 11:07:01;;;;;;;4.35;2.05;;;24.80;79.00;;;;;;5083308;28;20028;-83
2021/09/12 11:09:28;;;;;;;4.65;1.85;;;25.00;77.10;;;;;;5071122;28;20110;-83
2021/09/12 11:11:58;;;;;;;3.33;1.95;;;25.00;78.50;;;;;;5070879;28;20547;-83
2021/09/12 11:14:23;;;;;;;5.57;2.40;;;25.20;81.50;;;;;;5066536;28;20031;-83
2021/09/12 11:16:49;;;;;;;5.53;2.47;;;25.20;78.70;;;;;;5084855;28;20032;-83
2021/09/12 11:19:15;;;;;;;2.58;1.65;;;25.50;84.60;;;;;;5072878;28;20715;-83
2021/09/12 11:21:43;;;;;;;3.40;2.53;;;25.60;83.20;;;;;;5068586;28;20050;-83
2021/09/12 11:24:12;;;;;;;3.50;1.85;;;25.50;82.50;;;;;;5072789;28;20391;-83
2021/09/12 11:26:43;;;;;;;5.47;1.73;;;25.70;82.80;;;;;;5084734;28;20038;-83
2021/09/12 11:29:11;;;;;;;2.33;1.65;;;25.90;80.90;;;;;;5071764;28;20035;-83
2021/09/12 11:31:39;;;;;;;5.20;2.13;;;25.80;80.60;;;;;;5065746;28;20561;-83
2021/09/12 11:34:06;;;;;;;3.05;1.60;;;25.70;82.00;;;;;;5072353;28;20047;-84
2021/09/12 11:36:45;;;;;;;4.03;1.55;;;25.60;82.00;;;;;;5067155;28;20483;-84
2021/09/12 11:39:11;;;;;;;3.38;1.70;;;25.80;78.10;;;;;;5101178;28;20024;-84
2021/09/12 11:41:36;;;;;;;2.28;1.50;;;25.70;81.70;;;;;;5083012;28;20030;-83
2021/09/12 11:44:18;;;;;;;2.75;1.50;;;25.90;80.30;;;;;;5084496;28;20461;-83
2021/09/12 11:46:45;;;;;;;3.30;2.05;;;25.90;81.60;;;;;;5083686;28;20043;-83
2021/09/12 11:49:11;;;;;;;3.05;1.70;;;26.10;80.80;;;;;;5095313;28;20425;-83
2021/09/12 11:51:38;;;;;;;3.78;1.65;;;26.10;80.40;;;;;;5081616;28;20079;-83
2021/09/12 11:54:13;;;;;;;5.55;1.58;;;26.20;79.40;;;;;;5074352;28;20392;-83
2021/09/12 11:56:57;;;;;;;1.88;1.35;;;26.40;78.60;;;;;;5086102;28;20483;-83
2021/09/12 11:59:22;;;;;;;3.38;1.23;;;26.50;79.40;;;;;;5102826;28;20039;-83
2021/09/12 12:01:49;;;;;;;2.45;1.25;;;26.40;79.60;;;;;;5073903;28;20448;-83
2021/09/12 12:04:14;;;;;;;2.92;1.33;;;26.50;80.80;;;;;;5067624;28;20035;-83
2021/09/12 12:06:43;;;;;;;1.95;1.33;;;26.50;80.30;;;;;;5064096;27;20082;-83
2021/09/12 12:09:25;;;;;;;6.18;1.85;;;26.60;76.00;;;;;;5068267;28;20690;-85
2021/09/12 12:11:50;;;;;;;3.72;1.83;;;26.40;78.90;;;;;;5100888;28;20024;-85
2021/09/12 12:14:25;;;;;;;4.63;1.73;;;26.50;75.70;;;;;;5069762;28;20041;-85
2021/09/12 12:17:06;;;;;;;2.67;1.45;;;26.60;77.10;;;;;;5048476;28;20382;-85
2021/09/12 12:19:35;;;;;;;3.17;1.60;;;26.50;75.70;;;;;;5057882;28;20027;-85
2021/09/12 12:22:05;;;;;;;2.53;1.45;;;26.50;75.90;;;;;;5066017;28;20027;-84
2021/09/12 12:24:34;;;;;;;1.77;1.48;;;26.70;74.50;;;;;;5072721;28;20115;-85
2021/09/12 12:27:08;;;;;;;3.45;1.75;;;26.70;70.90;;;;;;5089344;28;20571;-86
2021/09/12 12:29:34;;;;;;;2.70;1.55;;;27.00;72.50;;;;;;5086651;28;20028;-86
2021/09/12 12:32:02;;;;;;;3.60;1.63;;;26.50;76.40;;;;;;5070924;28;20483;-88
2021/09/12 12:34:41;;;;;;;2.50;1.30;;;26.30;76.10;;;;;;5076536;28;20039;-85
2021/09/12 12:37:14;;;;;;;3.10;1.15;;;26.40;73.90;;;;;;5098691;28;20036;-86